Terminal Aerodrome Forecast
Issued by NWS

Home | Current Version | Previous Version | Text Only | Print | Product List | Glossary On
Versions: 1 2 3 4 5 6 7 8 9 10 11 12 13 14 15 16 17 18 19 20 21 22 23 24 25 26 27 28 29 30 31 32 33 34 35 36 37 38 39 40 41 42 43
000
FTUS43 KMKX 301132 AAA
TAFENW
TAF AMD
KENW 301132Z 3012/3112 VRB05KT 5SM SHRA BKN035 OVC100
     FM301400 02011G22KT 5SM SHRA BKN004
     FM301600 02016G25KT 3SM SHRA BKN004
     FM301800 02018G26KT 3SM RA OVC005
     FM302000 02019G31KT 5SM -RA OVC008
     FM310000 02019G31KT P6SM OVC040
     FM310900 02015G24KT P6SM SCT050
     FM311000 02014G24KT P6SM SCT200=

USA.gov is the U.S. government's official web portal to all federal, state and local government web resources and services.